Terminal Aerodrome Forecast
Issued by NWS Cleveland, OH

Home | Current Version | Previous Version | Text Only | Print | Product List | Glossary Off
Versions: 1 2 3 4 5 6 7 8 9 10 11 12 13

000
FTUS41 KCLE 231700
TAFTOL
TAF
KTOL 231729Z 2318/2418 34011KT P6SM OVC020
     FM232200 35011KT P6SM BKN035
     FM240100 36009KT P6SM SCT035
     FM240300 02006KT P6SM FEW035=

USA.gov is the U.S. government's official web portal to all federal, state and local government web resources and services.